This is the latest recevied weather packets stored in our database for station/object VR2OT-10. If no packets are shown the sender has not sent any weather packets the latest 10 day(s).
| Time | Temp. | Humidity | Pressure | Rain* | Wind** | Luminosity | Snow |
|---|---|---|---|---|---|---|---|
| 1787817333 | 28.33° C | 82% | 1002.6 hPa | - | 0.89 m/s, 135° | - | - |
| 1787816431 | 28.33° C | 81% | 1002.6 hPa | - | 0.45 m/s, 180° | - | - |
| 1787815533 | 28.89° C | 82% | 1002.6 hPa | - | 1.34 m/s, 270° | - | - |
| 1787814634 | 28.33° C | 82% | 1002.6 hPa | - | 1.34 m/s, 225° | - | - |
| 1787813732 | 28.33° C | 84% | 1002.7 hPa | - | 1.34 m/s, 270° | - | - |
| 1787812834 | 28.33° C | 84% | 1002.7 hPa | - | 1.34 m/s, 270° | - | - |
| 1787811933 | 28.33° C | 86% | 1002.7 hPa | - | 1.34 m/s, 270° | - | - |
| 1787811032 | 27.78° C | 86% | 1002.8 hPa | - | 1.34 m/s, 270° | - | - |
| 1787810133 | 27.78° C | 87% | 1003.2 hPa | - | 0.89 m/s, 270° | - | - |
| 1787809233 | 27.78° C | 86% | 1003.3 hPa | - | 1.34 m/s, 270° | - | - |
| 1787808332 | 27.22° C | 88% | 1003.7 hPa | - | 0 m/s | - | - |
| 1787807434 | 26.67° C | 89% | 1004 hPa | - | - | - | - |
| 1787806533 | 26.67° C | 90% | 1004.3 hPa | - | - | - | - |
| 1787805631 | 26.67° C | 89% | 1004.5 hPa | - | 0 m/s | - | - |
| 1787804734 | 26.67° C | 91% | 1004.6 hPa | - | 0 m/s | - | - |
| 1787803835 | 26.11° C | 90% | 1004.7 hPa | - | 0.45 m/s, 135° | - | - |
| 1787802931 | 26.67° C | 91% | 1004.7 hPa | - | 0 m/s | - | - |
| 1787802034 | 26.67° C | 92% | 1004.7 hPa | - | - | - | - |
| 1787801133 | 26.11° C | 93% | 1004.8 hPa | - | 1.34 m/s, 270° | - | - |
| 1787800232 | 26.11° C | 92% | 1004.8 hPa | - | 4.02 m/s, 135° | - | - |
| 1787799332 | 26.11° C | 92% | 1004.8 hPa | - | 1.79 m/s, 135° | - | - |
| 1787798433 | 26.11° C | 93% | 1004.8 hPa | - | 0 m/s | - | - |
| 1787797532 | 26.11° C | 95% | 1004.6 hPa | - | - | - | - |
| 1787796634 | 26.11° C | 95% | 1004.3 hPa | - | 0 m/s | - | - |
| 1787795733 | 26.11° C | 93% | 1004.5 hPa | - | 0.45 m/s, 225° | - | - |
* Rain since midnight (hover to see other rain measurements)
** Current wind speed in m/s (hover to see current wind gust speed)